Time;durP1;ratioP1;P1;durP2;ratioP2;P2;SDS_P1;SDS_P2;PMS_P1;PMS_P2;Temp;Humidity;BMP_temperature;BMP_pressure;BME280_temperature;BME280_humidity;BME280_pressure;Samples;Min_cycle;Max_cycle;Signal;HPM_P1;HPM_P2
2023/08/06 00:00:54;;;;;;;1.73;1.20;;;;;;;22.32;53.85;100519.16;5041430;28;20127;-34
2023/08/06 00:03:21;;;;;;;1.65;1.52;;;;;;;22.32;53.93;100512.94;5041089;28;20151;-35
2023/08/06 00:05:48;;;;;;;1.58;1.27;;;;;;;22.32;54.12;100515.63;5045151;28;20064;-35
2023/08/06 00:08:14;;;;;;;2.15;1.10;;;;;;;22.31;53.85;100525.59;5041896;28;20045;-34
2023/08/06 00:10:41;;;;;;;1.15;1.02;;;;;;;22.32;53.93;100526.44;5041624;28;20063;-34
2023/08/06 00:13:08;;;;;;;2.05;1.20;;;;;;;22.32;53.74;100537.25;5040635;28;20053;-35
2023/08/06 00:15:34;;;;;;;1.15;1.00;;;;;;;22.31;53.61;100524.75;5040822;28;20123;-34
2023/08/06 00:18:01;;;;;;;1.20;1.10;;;;;;;22.30;53.71;100526.63;5042246;28;20651;-34
2023/08/06 00:20:28;;;;;;;1.25;1.13;;;;;;;22.30;53.79;100515.81;5040555;28;20053;-34
2023/08/06 00:22:54;;;;;;;1.52;1.10;;;;;;;22.31;53.81;100522.03;5042337;28;20042;-34
2023/08/06 00:25:21;;;;;;;1.30;1.20;;;;;;;22.31;53.89;100522.03;5039812;28;20345;-34
2023/08/06 00:27:47;;;;;;;1.83;1.15;;;;;;;22.30;53.68;100520.38;5044094;28;20049;-34
2023/08/06 00:30:14;;;;;;;1.50;1.00;;;;;;;22.29;53.57;100527.66;5042527;28;20135;-35
2023/08/06 00:32:41;;;;;;;1.45;1.20;;;;;;;22.29;53.83;100521.41;5038529;28;20424;-34
2023/08/06 00:35:07;;;;;;;2.47;1.25;;;;;;;22.29;53.68;100521.41;5044488;28;20053;-35
2023/08/06 00:37:34;;;;;;;1.25;1.15;;;;;;;22.28;53.94;100519.75;5039351;28;20076;-35
2023/08/06 00:40:01;;;;;;;1.42;1.33;;;;;;;22.28;53.61;100528.69;5039826;28;20045;-35
2023/08/06 00:42:27;;;;;;;1.25;1.02;;;;;;;22.27;53.87;100520.75;5045275;28;20096;-35
2023/08/06 00:44:54;;;;;;;1.30;1.15;;;;;;;22.27;53.75;100516.22;5042005;28;20146;-35
2023/08/06 00:47:20;;;;;;;1.33;1.15;;;;;;;22.27;53.59;100520.75;5036496;28;20099;-35
2023/08/06 00:49:47;;;;;;;1.40;1.10;;;;;;;22.27;53.96;100512.66;5039794;28;20472;-35
2023/08/06 00:52:14;;;;;;;1.33;1.00;;;;;;;22.26;53.54;100517.22;5040682;28;20540;-35
2023/08/06 00:54:41;;;;;;;1.98;1.08;;;;;;;22.26;53.94;100521.78;5039567;28;20049;-35
2023/08/06 00:57:09;;;;;;;1.77;1.10;;;;;;;22.25;53.67;100520.94;5041825;28;20045;-35
2023/08/06 00:59:36;;;;;;;1.20;1.10;;;;;;;22.25;53.67;100512.03;5036627;28;20578;-35
2023/08/06 01:02:03;;;;;;;1.10;0.90;;;;;;;22.25;53.69;100517.41;5039383;28;20044;-36
2023/08/06 01:04:30;;;;;;;1.60;1.00;;;;;;;22.25;53.90;100512.84;5037467;28;20053;-35
2023/08/06 01:07:06;;;;;;;1.20;1.10;;;;;;;22.25;53.66;100520.13;5040247;28;20064;-35
2023/08/06 01:10:06;;;;;;;1.17;1.08;;;;;;;22.23;53.91;100516.75;5038814;28;20098;-35
2023/08/06 01:12:51;;;;;;;1.08;0.98;;;;;;;22.24;53.83;100516.59;5042782;28;20116;-35
2023/08/06 01:15:27;;;;;;;1.42;1.13;;;;;;;22.23;53.77;100512.22;5042106;28;20052;-35
2023/08/06 01:17:54;;;;;;;1.20;1.00;;;;;;;22.24;53.68;100504.94;5040015;28;20552;-35
2023/08/06 01:20:21;;;;;;;1.15;1.00;;;;;;;22.23;53.53;100509.53;5045095;28;20037;-35
2023/08/06 01:22:47;;;;;;;1.27;1.17;;;;;;;22.22;53.79;100507.81;5039839;28;20140;-35
2023/08/06 01:25:16;;;;;;;1.75;1.10;;;;;;;22.23;53.88;100509.53;5042391;28;20095;-35
2023/08/06 01:27:49;;;;;;;1.10;0.93;;;;;;;22.22;53.84;100509.69;5043470;28;20049;-35
2023/08/06 01:30:25;;;;;;;1.52;1.20;;;;;;;22.23;53.81;100508.66;5039598;28;20178;-35
2023/08/06 01:33:00;;;;;;;1.38;1.10;;;;;;;22.23;53.64;100517.63;5042874;28;20073;-35
2023/08/06 01:35:30;;;;;;;1.25;1.10;;;;;;;22.23;53.61;100505.97;5043761;28;20053;-35
2023/08/06 01:37:56;;;;;;;1.55;1.13;;;;;;;22.23;53.55;100519.47;5035365;28;20128;-35
2023/08/06 01:40:23;;;;;;;1.05;0.90;;;;;;;22.23;53.55;100511.34;5041372;28;20041;-35
2023/08/06 01:42:50;;;;;;;0.88;0.80;;;;;;;22.22;53.80;100505.13;5038926;28;20053;-35
2023/08/06 01:45:16;;;;;;;1.02;0.85;;;;;;;22.22;53.62;100505.13;5043986;28;20137;-35
2023/08/06 01:47:43;;;;;;;1.13;1.00;;;;;;;22.22;53.56;100517.78;5041448;28;20421;-35
2023/08/06 01:50:09;;;;;;;1.20;1.10;;;;;;;22.21;53.78;100514.25;5041609;28;20132;-35
2023/08/06 01:52:36;;;;;;;1.50;0.95;;;;;;;22.21;53.81;100513.44;5040798;28;20135;-35
2023/08/06 01:55:03;;;;;;;1.90;1.05;;;;;;;22.20;53.68;100515.28;5044986;28;20099;-35
2023/08/06 01:57:29;;;;;;;1.15;1.05;;;;;;;22.21;53.57;100516.13;5040227;28;20382;-35
2023/08/06 01:59:56;;;;;;;2.05;1.10;;;;;;;22.21;53.73;100521.53;5037243;28;20437;-35
2023/08/06 02:02:23;;;;;;;1.33;1.00;;;;;;;22.18;53.57;100518.16;5041090;28;20044;-35
2023/08/06 02:04:49;;;;;;;1.05;0.90;;;;;;;22.18;53.54;100520.03;5040880;28;20329;-35
2023/08/06 02:07:16;;;;;;;1.00;0.90;;;;;;;22.18;53.31;100515.47;5037748;28;20054;-35
2023/08/06 02:09:43;;;;;;;1.10;0.93;;;;;;;22.17;53.89;100527.28;5041772;28;20049;-35
2023/08/06 02:12:09;;;;;;;1.48;1.02;;;;;;;22.17;53.81;100521.06;5043143;28;20049;-35
2023/08/06 02:14:36;;;;;;;1.48;1.10;;;;;;;22.17;53.60;100524.59;5042935;28;20084;-35
2023/08/06 02:17:03;;;;;;;1.27;1.00;;;;;;;22.17;53.73;100530.00;5037973;28;20140;-35
2023/08/06 02:19:30;;;;;;;1.10;0.90;;;;;;;22.17;53.55;100527.28;5041820;28;20056;-35
2023/08/06 02:21:56;;;;;;;1.00;0.90;;;;;;;22.17;53.85;100529.16;5046977;28;20569;-35
2023/08/06 02:24:23;;;;;;;1.83;1.02;;;;;;;22.15;53.80;100518.56;5046414;28;20088;-35
2023/08/06 02:26:51;;;;;;;1.15;1.00;;;;;;;22.17;54.11;100526.47;5042635;28;20053;-35
2023/08/06 02:29:18;;;;;;;1.05;0.95;;;;;;;22.15;53.62;100521.25;5043833;28;20057;-35
2023/08/06 02:31:44;;;;;;;1.05;0.80;;;;;;;22.16;53.81;100516.69;5046207;28;20120;-35
2023/08/06 02:34:11;;;;;;;1.00;0.80;;;;;;;22.16;53.58;100528.31;5043245;28;20048;-35
2023/08/06 02:36:38;;;;;;;0.98;0.80;;;;;;;22.15;53.57;100523.97;5042278;28;20476;-35
2023/08/06 02:39:04;;;;;;;1.15;1.00;;;;;;;22.15;54.16;100520.41;5045311;28;20509;-35
2023/08/06 02:41:31;;;;;;;0.90;0.90;;;;;;;22.15;53.77;100525.78;5041689;28;20063;-35
2023/08/06 02:43:57;;;;;;;1.10;0.90;;;;;;;22.15;53.51;100523.97;5044882;28;20175;-35
2023/08/06 02:46:24;;;;;;;1.13;0.98;;;;;;;22.15;53.90;100526.66;5039333;28;20041;-35
2023/08/06 02:48:50;;;;;;;1.00;0.90;;;;;;;22.15;53.46;100523.97;5044841;28;20069;-35
2023/08/06 02:51:17;;;;;;;1.20;0.93;;;;;;;22.15;53.72;100523.97;5041017;28;20723;-35
2023/08/06 02:53:44;;;;;;;1.05;0.95;;;;;;;22.14;53.95;100513.34;5045246;28;20102;-35
2023/08/06 02:56:10;;;;;;;1.73;1.20;;;;;;;22.14;53.49;100519.56;5038973;28;20072;-35
2023/08/06 02:58:37;;;;;;;1.00;0.90;;;;;;;22.14;53.86;100519.56;5042953;28;20057;-35
2023/08/06 03:01:05;;;;;;;1.58;1.08;;;;;;;22.15;53.81;100520.41;5045682;28;20128;-34
2023/08/06 03:03:32;;;;;;;0.77;0.70;;;;;;;22.15;53.48;100515.00;5039956;28;20468;-35
2023/08/06 03:05:59;;;;;;;1.30;1.13;;;;;;;22.14;53.48;100516.88;5038840;28;20166;-35
2023/08/06 03:08:26;;;;;;;1.15;0.95;;;;;;;22.15;53.56;100517.69;5044970;28;20049;-35
2023/08/06 03:10:53;;;;;;;1.00;0.90;;;;;;;22.15;53.94;100517.69;5042342;28;20486;-35
2023/08/06 03:13:20;;;;;;;1.38;1.20;;;;;;;22.13;53.73;100515.19;5044879;28;20137;-35
2023/08/06 03:15:55;;;;;;;1.08;0.90;;;;;;;22.13;53.63;100512.50;5043855;28;20052;-35
2023/08/06 03:18:21;;;;;;;1.08;0.98;;;;;;;22.14;53.53;100514.16;5044125;28;20080;-35
2023/08/06 03:20:49;;;;;;;1.25;0.85;;;;;;;22.14;53.74;100516.88;5041003;28;20390;-35
2023/08/06 03:23:15;;;;;;;1.20;1.00;;;;;;;22.14;53.66;100516.03;5042789;28;20424;-35
2023/08/06 03:25:42;;;;;;;0.80;0.80;;;;;;;22.13;53.59;100519.75;5041902;28;20712;-35
2023/08/06 03:28:08;;;;;;;1.90;0.98;;;;;;;22.14;53.50;100521.44;5040333;28;20060;-35
2023/08/06 03:30:35;;;;;;;1.67;0.90;;;;;;;22.13;53.59;100514.38;5041619;28;20444;-35
2023/08/06 03:33:02;;;;;;;1.27;1.00;;;;;;;22.14;53.56;100524.13;5039684;28;20127;-35
2023/08/06 03:35:28;;;;;;;0.98;0.80;;;;;;;22.14;53.75;100522.25;5044926;28;20061;-35
2023/08/06 03:37:55;;;;;;;1.20;0.93;;;;;;;22.13;53.51;100520.59;5043281;28;20506;-35
2023/08/06 03:40:22;;;;;;;1.70;0.93;;;;;;;22.14;53.67;100527.66;5043142;28;20045;-35
2023/08/06 03:42:49;;;;;;;1.00;0.90;;;;;;;22.14;53.82;100526.81;5040454;28;20245;-35
2023/08/06 03:45:15;;;;;;;1.23;0.82;;;;;;;22.14;53.81;100524.13;5040073;28;20145;-35
2023/08/06 03:47:42;;;;;;;0.80;0.60;;;;;;;22.13;53.48;100517.91;5041773;28;20128;-35
2023/08/06 03:50:09;;;;;;;0.95;0.90;;;;;;;22.14;53.60;100522.25;5041251;28;20049;-35
2023/08/06 03:52:35;;;;;;;1.13;0.95;;;;;;;22.13;53.58;100523.28;5039354;28;20414;-35
2023/08/06 03:55:02;;;;;;;1.10;0.85;;;;;;;22.13;53.49;100520.59;5044507;28;20377;-35
2023/08/06 03:57:29;;;;;;;1.42;0.90;;;;;;;22.13;53.50;100523.28;5044122;28;20045;-35
2023/08/06 03:59:55;;;;;;;0.75;0.75;;;;;;;22.13;53.65;100517.91;5041131;28;20065;-35
2023/08/06 04:02:22;;;;;;;1.33;0.90;;;;;;;22.13;53.49;100522.47;5042403;28;20041;-34
2023/08/06 04:04:48;;;;;;;2.55;0.80;;;;;;;22.13;53.42;100517.06;5044045;28;20490;-35
2023/08/06 04:07:15;;;;;;;1.42;1.10;;;;;;;22.13;53.67;100517.06;5041854;28;20158;-35
2023/08/06 04:09:57;;;;;;;1.92;1.30;;;;;;;22.12;53.66;100521.59;5045673;28;20134;-35
2023/08/06 04:12:23;;;;;;;0.93;0.82;;;;;;;22.12;53.80;100523.47;5040920;28;21623;-35
2023/08/06 04:14:54;;;;;;;1.20;0.93;;;;;;;22.13;53.63;100528.69;5041845;28;20049;-35
2023/08/06 04:17:21;;;;;;;1.00;0.88;;;;;;;22.11;53.69;100530.72;5043427;28;20056;-35
2023/08/06 04:19:53;;;;;;;0.90;0.70;;;;;;;22.11;53.97;100535.25;5039496;28;20111;-35
2023/08/06 04:22:21;;;;;;;0.55;0.50;;;;;;;22.11;53.67;100530.72;5041026;28;20084;-35
2023/08/06 04:24:47;;;;;;;0.93;0.80;;;;;;;22.11;53.62;100532.56;5039053;28;20110;-35
2023/08/06 04:27:15;;;;;;;1.05;0.95;;;;;;;22.10;53.74;100537.13;5039136;28;20045;-35
2023/08/06 04:29:42;;;;;;;0.70;0.60;;;;;;;22.11;53.63;100543.38;5041849;28;20053;-35
2023/08/06 04:32:10;;;;;;;1.10;0.70;;;;;;;22.11;53.75;100540.66;5038189;28;20045;-35
2023/08/06 04:34:37;;;;;;;1.25;1.00;;;;;;;22.10;53.86;100537.13;5040546;28;20100;-35
2023/08/06 04:37:04;;;;;;;1.35;1.00;;;;;;;22.09;53.85;100540.88;5038702;28;20057;-35
2023/08/06 04:39:31;;;;;;;2.15;0.88;;;;;;;22.09;53.82;100548.97;5037366;28;20076;-35
2023/08/06 04:41:57;;;;;;;1.42;1.00;;;;;;;22.09;53.97;100554.34;5037035;28;20041;-35
2023/08/06 04:44:24;;;;;;;1.10;1.00;;;;;;;22.09;53.62;100556.22;5039993;28;20045;-35
2023/08/06 04:46:51;;;;;;;0.90;0.90;;;;;;;22.09;53.50;100559.75;5043724;28;20103;-35
2023/08/06 04:49:20;;;;;;;0.80;0.80;;;;;;;22.08;53.68;100552.69;5039468;28;20060;-35
2023/08/06 04:51:46;;;;;;;1.98;0.80;;;;;;;22.09;53.90;100557.06;5039026;28;20052;-35
2023/08/06 04:54:13;;;;;;;0.77;0.70;;;;;;;22.09;53.80;100565.16;5040776;28;20049;-35
2023/08/06 04:56:40;;;;;;;0.63;0.63;;;;;;;22.08;54.00;100558.09;5039572;28;20455;-35
2023/08/06 04:59:06;;;;;;;1.00;0.85;;;;;;;22.08;53.94;100558.09;5036009;28;20111;-35
2023/08/06 05:01:33;;;;;;;1.02;0.93;;;;;;;22.08;53.59;100563.50;5039739;28;20041;-35
2023/08/06 05:03:59;;;;;;;0.77;0.63;;;;;;;22.09;54.00;100561.63;5039678;28;20302;-35
2023/08/06 05:06:26;;;;;;;1.17;0.90;;;;;;;22.08;53.89;100558.09;5040294;28;20051;-35
2023/08/06 05:08:53;;;;;;;1.17;0.73;;;;;;;22.08;53.77;100574.28;5037805;28;20140;-35
2023/08/06 05:11:19;;;;;;;1.42;0.88;;;;;;;22.08;53.75;100573.44;5038390;28;20126;-35
2023/08/06 05:13:46;;;;;;;1.10;0.90;;;;;;;22.07;53.62;100575.31;5037432;28;20122;-35
2023/08/06 05:16:12;;;;;;;1.42;0.98;;;;;;;22.08;53.69;100579.69;5040233;28;20052;-35
2023/08/06 05:18:39;;;;;;;1.48;1.10;;;;;;;22.07;53.97;100583.41;5041071;28;20355;-35
2023/08/06 05:21:06;;;;;;;1.27;0.98;;;;;;;22.07;53.96;100583.41;5041201;28;20049;-35
2023/08/06 05:23:32;;;;;;;0.82;0.82;;;;;;;22.07;54.06;100586.13;5039637;28;20708;-35
2023/08/06 05:25:59;;;;;;;1.17;0.90;;;;;;;22.07;53.83;100591.50;5043699;28;20456;-35
2023/08/06 05:28:25;;;;;;;0.85;0.77;;;;;;;22.07;53.83;100596.03;5040408;28;20095;-35
2023/08/06 05:30:52;;;;;;;1.52;0.75;;;;;;;22.07;53.90;100609.53;5042369;28;20041;-35
2023/08/06 05:33:19;;;;;;;0.73;0.70;;;;;;;22.06;54.12;100606.00;5039021;28;20076;-35
2023/08/06 05:35:45;;;;;;;1.02;0.93;;;;;;;22.06;53.93;100614.09;5037601;28;20453;-36
2023/08/06 05:38:12;;;;;;;1.20;0.93;;;;;;;22.06;54.07;100613.28;5038890;28;20411;-35
2023/08/06 05:40:38;;;;;;;1.20;0.90;;;;;;;22.05;53.88;100620.53;5044776;28;20282;-35
2023/08/06 05:43:05;;;;;;;1.23;0.90;;;;;;;22.05;54.03;100617.84;5041263;28;20095;-35
2023/08/06 05:45:32;;;;;;;1.02;0.93;;;;;;;22.06;53.88;100624.91;5042454;28;20094;-35
2023/08/06 05:47:58;;;;;;;1.00;0.90;;;;;;;22.04;54.07;100623.44;5039021;28;20440;-35
2023/08/06 05:50:25;;;;;;;1.30;1.10;;;;;;;22.05;54.13;100634.03;5038093;28;20049;-35
2023/08/06 05:52:52;;;;;;;1.00;0.80;;;;;;;22.04;54.28;100635.06;5045186;28;20049;-35
2023/08/06 05:55:20;;;;;;;1.17;1.02;;;;;;;22.06;54.59;100632.16;5043485;28;20110;-35
2023/08/06 05:57:46;;;;;;;1.10;0.93;;;;;;;22.04;54.19;100636.94;5043678;28;21163;-35
2023/08/06 06:00:13;;;;;;;1.00;0.80;;;;;;;22.04;54.14;100637.75;5043559;28;20056;-35
2023/08/06 06:02:40;;;;;;;1.00;0.80;;;;;;;22.03;54.24;100638.78;5042303;28;20133;-35
2023/08/06 06:05:07;;;;;;;1.15;0.82;;;;;;;22.04;54.50;100642.31;5045171;28;20055;-35
2023/08/06 06:07:34;;;;;;;1.10;0.95;;;;;;;22.03;54.25;100648.72;5038592;28;20052;-35
2023/08/06 06:10:00;;;;;;;0.77;0.77;;;;;;;22.03;54.49;100649.59;5039725;28;20052;-35
2023/08/06 06:12:27;;;;;;;1.35;0.90;;;;;;;22.03;54.50;100646.88;5040822;28;20108;-35
2023/08/06 06:14:54;;;;;;;0.60;0.57;;;;;;;22.02;54.53;100655.97;5044322;28;20340;-35
2023/08/06 06:17:20;;;;;;;1.27;1.00;;;;;;;22.04;54.45;100658.53;5039437;28;20049;-35
2023/08/06 06:19:47;;;;;;;1.10;1.00;;;;;;;22.03;54.42;100654.97;5043328;28;20061;-35
2023/08/06 06:22:14;;;;;;;1.25;0.80;;;;;;;22.04;54.64;100658.53;5040350;28;20322;-35
2023/08/06 06:24:40;;;;;;;0.70;0.70;;;;;;;22.04;54.77;100656.66;5041578;28;20072;-34
2023/08/06 06:27:07;;;;;;;1.00;0.70;;;;;;;22.05;54.94;100657.50;5042694;28;20114;-35
2023/08/06 06:29:33;;;;;;;0.80;0.80;;;;;;;22.05;55.02;100669.13;5046256;28;20049;-35
2023/08/06 06:32:00;;;;;;;0.85;0.82;;;;;;;22.04;54.73;100664.75;5044433;28;20417;-35
2023/08/06 06:34:27;;;;;;;2.25;0.80;;;;;;;22.04;54.88;100672.84;5040140;28;20769;-35
2023/08/06 06:36:53;;;;;;;1.33;1.20;;;;;;;22.05;54.86;100679.91;5044710;28;20384;-35
2023/08/06 06:39:20;;;;;;;1.17;0.93;;;;;;;22.05;54.98;100682.63;5040983;28;20049;-35
2023/08/06 06:41:47;;;;;;;1.02;0.77;;;;;;;22.06;55.25;100684.28;5044882;28;20056;-35
2023/08/06 06:44:14;;;;;;;1.35;1.00;;;;;;;22.06;54.88;100686.97;5039643;28;20049;-35
2023/08/06 06:46:41;;;;;;;1.13;0.90;;;;;;;22.06;54.97;100696.94;5044191;28;20259;-35
2023/08/06 06:49:08;;;;;;;1.33;0.90;;;;;;;22.05;54.81;100693.41;5042822;28;20084;-35
2023/08/06 06:51:35;;;;;;;0.68;0.68;;;;;;;22.06;54.88;100692.38;5043754;28;20371;-35
2023/08/06 06:54:02;;;;;;;1.48;0.90;;;;;;;22.06;54.83;100688.84;5041176;28;20040;-35
2023/08/06 06:56:29;;;;;;;1.10;0.93;;;;;;;22.06;55.00;100694.25;5041463;28;20123;-35
2023/08/06 06:58:56;;;;;;;1.33;0.70;;;;;;;22.06;55.03;100705.88;5044702;28;20054;-35
2023/08/06 07:01:22;;;;;;;1.20;0.90;;;;;;;22.07;54.95;100704.88;5043387;28;20345;-35
2023/08/06 07:03:49;;;;;;;2.28;1.20;;;;;;;22.08;55.21;100695.75;5038073;28;20680;-35
2023/08/06 07:06:18;;;;;;;1.80;1.30;;;;;;;22.08;55.16;100706.53;5044283;28;20467;-35
2023/08/06 07:08:45;;;;;;;3.50;1.73;;;;;;;22.08;55.10;100703.84;5046671;28;20160;-35
2023/08/06 07:11:12;;;;;;;3.13;2.22;;;;;;;22.10;55.05;100698.25;5044316;28;20085;-35
2023/08/06 07:13:38;;;;;;;4.30;2.40;;;;;;;22.11;55.08;100690.00;5043949;28;20045;-35
2023/08/06 07:16:05;;;;;;;4.05;2.85;;;;;;;22.12;55.33;100698.91;5044497;28;20045;-35
2023/08/06 07:18:33;;;;;;;5.63;3.38;;;;;;;22.12;55.46;100705.16;5042811;28;20169;-35
2023/08/06 07:21:00;;;;;;;5.68;3.30;;;;;;;22.12;55.62;100707.84;5043378;28;20049;-35
2023/08/06 07:23:27;;;;;;;6.28;3.08;;;;;;;22.14;55.12;100715.78;5039601;28;20087;-35
2023/08/06 07:25:53;;;;;;;6.05;3.40;;;;;;;22.14;55.30;100715.78;5041267;28;20348;-35
2023/08/06 07:28:20;;;;;;;4.97;3.35;;;;;;;22.14;55.05;100719.31;5043224;28;20044;-35
2023/08/06 07:30:47;;;;;;;6.05;3.60;;;;;;;22.14;55.06;100713.94;5042221;28;20130;-35
2023/08/06 07:33:14;;;;;;;5.47;3.70;;;;;;;22.16;55.30;100720.00;5039953;28;20045;-35
2023/08/06 07:35:40;;;;;;;5.53;3.78;;;;;;;22.17;55.09;100723.53;5038497;28;20114;-35
2023/08/06 07:38:07;;;;;;;5.03;3.20;;;;;;;22.18;55.22;100727.91;5041416;28;20444;-35
2023/08/06 07:40:36;;;;;;;5.30;3.65;;;;;;;22.18;55.02;100720.63;5042569;28;20053;-35
2023/08/06 07:43:03;;;;;;;4.95;3.38;;;;;;;22.21;54.92;100735.63;5044139;28;20048;-35
2023/08/06 07:45:34;;;;;;;5.65;3.90;;;;;;;22.21;55.09;100726.69;5040871;28;20724;-35
2023/08/06 07:48:01;;;;;;;5.00;3.42;;;;;;;22.23;54.95;100733.59;5038975;28;20079;-35
2023/08/06 07:50:28;;;;;;;5.88;3.63;;;;;;;22.23;54.92;100744.41;5042006;28;20055;-35
2023/08/06 07:52:55;;;;;;;5.57;3.38;;;;;;;22.25;54.97;100741.50;5037042;28;20095;-35
2023/08/06 07:55:22;;;;;;;5.57;3.70;;;;;;;22.24;54.87;100737.97;5040796;28;20045;-35
2023/08/06 07:57:48;;;;;;;6.40;4.00;;;;;;;22.25;54.88;100746.91;5039779;28;20059;-35
2023/08/06 08:00:15;;;;;;;7.90;3.78;;;;;;;22.24;54.96;100743.38;5043434;28;20142;-35
2023/08/06 08:02:41;;;;;;;6.07;3.63;;;;;;;22.25;54.59;100744.22;5040260;28;20048;-35
2023/08/06 08:05:08;;;;;;;5.97;3.38;;;;;;;22.26;54.76;100749.41;5037040;28;20136;-35
2023/08/06 08:07:35;;;;;;;6.43;3.42;;;;;;;22.25;54.67;100747.75;5044262;28;20095;-35
2023/08/06 08:10:03;;;;;;;6.43;3.65;;;;;;;22.26;54.95;100746.72;5049004;28;20352;-35
2023/08/06 08:12:29;;;;;;;6.18;3.50;;;;;;;22.26;55.00;100748.56;5044424;28;20053;-35
2023/08/06 08:14:56;;;;;;;5.75;3.78;;;;;;;22.26;55.08;100754.81;5042503;28;20128;-35
2023/08/06 08:17:22;;;;;;;5.15;3.58;;;;;;;22.26;54.77;100754.81;5043009;28;20053;-34
2023/08/06 08:19:49;;;;;;;6.13;3.95;;;;;;;22.27;54.84;100752.94;5046307;28;20345;-35
2023/08/06 08:22:16;;;;;;;6.55;3.97;;;;;;;22.27;54.68;100752.94;5034993;28;20108;-35
2023/08/06 08:24:42;;;;;;;6.07;3.85;;;;;;;22.26;54.75;100754.81;5042327;28;20051;-35
2023/08/06 08:27:09;;;;;;;6.53;4.45;;;;;;;22.28;54.81;100754.66;5047527;28;20520;-35
2023/08/06 08:29:35;;;;;;;9.13;4.85;;;;;;;22.28;54.53;100755.47;5044322;28;20056;-35
2023/08/06 08:32:02;;;;;;;8.23;4.93;;;;;;;22.28;54.75;100754.66;5040215;28;20138;-35
2023/08/06 08:34:29;;;;;;;9.07;5.60;;;;;;;22.29;54.92;100761.72;5039220;28;20072;-35
2023/08/06 08:36:55;;;;;;;10.05;5.60;;;;;;;22.29;54.79;100759.03;5036945;28;20513;-35
2023/08/06 08:39:22;;;;;;;8.63;5.03;;;;;;;22.29;54.80;100756.31;5036836;28;20421;-35
2023/08/06 08:41:48;;;;;;;11.10;6.03;;;;;;;22.29;54.55;100759.03;5040275;28;20635;-35
2023/08/06 08:44:17;;;;;;;10.60;6.10;;;;;;;22.30;54.60;100755.28;5040620;28;20432;-35
2023/08/06 08:46:45;;;;;;;11.45;6.07;;;;;;;22.30;54.67;100760.69;5040246;28;20496;-35
2023/08/06 08:49:11;;;;;;;13.27;6.80;;;;;;;22.31;54.56;100762.34;5042194;28;20045;-35
2023/08/06 08:51:38;;;;;;;13.70;7.18;;;;;;;22.31;54.92;100756.97;5041546;28;20048;-35
2023/08/06 08:54:07;;;;;;;17.65;7.75;;;;;;;22.30;54.54;100761.53;5040157;28;20054;-35
2023/08/06 08:56:34;;;;;;;13.10;7.40;;;;;;;22.32;54.54;100772.16;5038639;28;20056;-35
2023/08/06 08:59:01;;;;;;;14.43;8.57;;;;;;;22.33;54.92;100769.25;5046478;28;20119;-35
2023/08/06 09:01:28;;;;;;;24.17;14.00;;;;;;;22.35;55.03;100778.03;5044911;28;20068;-35
2023/08/06 09:03:56;;;;;;;48.10;21.85;;;;;;;22.36;55.30;100777.00;5041865;28;20428;-35
2023/08/06 09:06:27;;;;;;;43.40;21.67;;;;;;;22.38;55.79;100780.34;5045034;28;20049;-35
2023/08/06 09:09:08;;;;;;;41.83;22.80;;;;;;;22.40;55.88;100780.19;5041553;28;20395;-35
2023/08/06 09:11:40;;;;;;;48.85;23.63;;;;;;;22.44;55.92;100783.34;5037399;28;20048;-35
2023/08/06 09:14:08;;;;;;;46.83;22.87;;;;;;;22.46;55.97;100786.69;5046354;28;20045;-36
2023/08/06 09:16:38;;;;;;;42.47;23.70;;;;;;;22.46;56.30;100784.81;5042906;28;20445;-36
2023/08/06 09:19:17;;;;;;;43.55;24.08;;;;;;;22.48;56.03;100793.59;5040805;28;20089;-35
2023/08/06 09:21:48;;;;;;;50.47;26.15;;;;;;;22.50;56.34;100788.00;5027592;28;20052;-37
2023/08/06 09:24:15;;;;;;;50.13;26.85;;;;;;;22.51;55.99;100795.91;5022424;28;20042;-37
2023/08/06 09:26:44;;;;;;;45.60;24.92;;;;;;;22.54;56.15;100794.72;5034446;28;20049;-37
2023/08/06 09:29:11;;;;;;;46.33;25.77;;;;;;;22.54;56.10;100798.25;5033534;28;20053;-37
2023/08/06 09:31:45;;;;;;;49.45;28.52;;;;;;;22.55;56.35;100805.34;5037677;28;20298;-38
2023/08/06 09:34:17;;;;;;;47.50;27.33;;;;;;;22.55;56.39;100804.50;5033973;28;20091;-37
2023/08/06 09:36:51;;;;;;;51.90;29.50;;;;;;;22.53;56.22;100810.09;5037390;28;20075;-37
2023/08/06 09:39:20;;;;;;;47.55;27.15;;;;;;;22.55;55.98;100809.88;5032969;28;20152;-37
2023/08/06 09:41:50;;;;;;;48.38;28.98;;;;;;;22.54;56.04;100819.88;5033537;28;20150;-37
2023/08/06 09:44:19;;;;;;;48.85;29.23;;;;;;;22.54;56.20;100817.16;5034909;28;20045;-37
2023/08/06 09:46:50;;;;;;;55.70;29.55;;;;;;;22.53;56.37;100818.19;5037181;28;20305;-37
2023/08/06 09:49:25;;;;;;;55.38;31.75;;;;;;;22.57;56.09;100826.78;5032155;28;20107;-37
2023/08/06 09:51:55;;;;;;;51.42;29.80;;;;;;;22.57;56.11;100826.78;5035154;28;20104;-39
2023/08/06 09:54:23;;;;;;;52.17;29.63;;;;;;;22.58;55.88;100837.38;5027206;28;20131;-37
2023/08/06 09:56:54;;;;;;;55.53;31.73;;;;;;;22.60;56.21;100838.06;5034283;28;20063;-38
2023/08/06 09:59:23;;;;;;;56.92;32.95;;;;;;;22.62;56.41;100837.84;5037164;28;20049;-37
2023/08/06 10:01:51;;;;;;;57.10;32.67;;;;;;;22.64;56.39;100842.06;5030499;28;20095;-37
2023/08/06 10:04:20;;;;;;;56.47;32.67;;;;;;;22.66;56.14;100842.69;5029778;28;20049;-37
2023/08/06 10:06:50;;;;;;;57.55;33.58;;;;;;;22.66;56.40;100845.41;5027087;28;20049;-37
2023/08/06 10:09:18;;;;;;;57.50;32.55;;;;;;;22.69;56.68;100846.91;5031924;28;20300;-37
2023/08/06 10:11:50;;;;;;;50.55;30.98;;;;;;;22.71;56.28;100838.59;5033838;28;20045;-37
2023/08/06 10:14:38;;;;;;;50.50;30.55;;;;;;;22.71;56.36;100841.31;5029069;28;20053;-37
2023/08/06 10:17:05;;;;;;;54.08;31.67;;;;;;;22.75;56.38;100850.72;5031077;28;20041;-38
2023/08/06 10:19:33;;;;;;;52.33;29.98;;;;;;;22.75;56.28;100845.31;5028479;28;20057;-37
2023/08/06 10:22:14;;;;;;;50.20;29.95;;;;;;;22.75;55.97;100845.31;5031934;28;20429;-37
2023/08/06 10:24:53;;;;;;;57.22;34.75;;;;;;;22.76;56.54;100855.97;5029280;28;20045;-36
2023/08/06 10:27:22;;;;;;;50.70;30.98;;;;;;;22.77;56.03;100849.53;5030955;28;20456;-36
2023/08/06 10:29:50;;;;;;;53.15;31.67;;;;;;;22.78;55.89;100842.25;5029503;28;20412;-36
2023/08/06 10:32:18;;;;;;;54.65;33.53;;;;;;;22.78;56.22;100850.34;5030972;28;20158;-36
2023/08/06 10:34:56;;;;;;;55.13;34.53;;;;;;;22.78;56.06;100848.50;5034609;28;20045;-36
2023/08/06 10:37:24;;;;;;;57.78;34.92;;;;;;;22.79;55.73;100852.03;5036165;28;20532;-36
2023/08/06 10:39:52;;;;;;;57.30;33.75;;;;;;;22.79;55.90;100852.88;5034432;28;20144;-36
2023/08/06 10:42:26;;;;;;;58.63;33.75;;;;;;;22.79;55.84;100852.88;5039363;28;20463;-36
2023/08/06 10:45:15;;;;;;;67.38;35.35;;;;;;;22.79;56.04;100857.44;5038257;28;20080;-37
2023/08/06 10:47:43;;;;;;;59.28;35.80;;;;;;;22.81;55.89;100860.81;5039424;28;20151;-36
2023/08/06 10:50:16;;;;;;;61.17;36.90;;;;;;;22.81;55.70;100850.00;5036725;28;20167;-36
2023/08/06 10:52:46;;;;;;;63.57;36.00;;;;;;;22.81;55.70;100850.00;5039415;28;20345;-36
2023/08/06 10:55:21;;;;;;;58.30;35.53;;;;;;;22.81;55.98;100861.66;5036185;28;20533;-36
2023/08/06 10:57:48;;;;;;;59.67;35.90;;;;;;;22.82;55.47;100868.72;5037448;28;20096;-36
2023/08/06 11:00:14;;;;;;;60.10;36.50;;;;;;;22.82;55.83;100871.41;5036214;28;20437;-36
2023/08/06 11:02:45;;;;;;;59.08;35.58;;;;;;;22.82;55.80;100868.72;5038452;28;20050;-36
2023/08/06 11:05:12;;;;;;;59.15;35.30;;;;;;;22.82;55.38;100870.59;5038282;28;20110;-36
2023/08/06 11:07:39;;;;;;;55.08;34.30;;;;;;;22.83;55.57;100872.25;5036459;28;20088;-36
2023/08/06 11:10:08;;;;;;;53.35;33.95;;;;;;;22.82;55.78;100868.72;5037576;28;20353;-36
2023/08/06 11:12:35;;;;;;;56.63;34.50;;;;;;;22.82;55.48;100874.13;5037734;28;20073;-37
2023/08/06 11:15:03;;;;;;;53.63;33.67;;;;;;;22.84;55.26;100873.97;5041080;28;20089;-36
2023/08/06 11:17:31;;;;;;;53.50;32.47;;;;;;;22.85;55.57;100881.88;5039945;28;20128;-36
2023/08/06 11:20:03;;;;;;;54.20;32.55;;;;;;;22.83;55.46;100883.06;5039394;28;20527;-36
2023/08/06 11:22:29;;;;;;;51.63;32.20;;;;;;;22.85;55.55;100886.44;5038522;28;20053;-36
2023/08/06 11:24:56;;;;;;;50.63;30.27;;;;;;;22.85;55.41;100892.69;5041639;28;20500;-36